LEAS

Asturias

Airport
ICAO code
LEAS
Summary
ICAO Region
EUR
ICAO Territory
Location

Asturias, Spain,

Coordinates
43° 33' 34" N , 6° 1' 52" W
KCC
Cfb
Airport BS
Bird Strike
Airport WX
Fog
Metar
Observation
LEAS 171930Z 25006KT 9000 SCT018 BKN060 17/16 Q1020 NOSIG
Station
Asturias / Aviles
Date/Time
2022-08-17 19:30:00
Wind direction
250°
Wind speed
06 kts
Lowest cloud amount
scattered clouds
Temperature
17°C
Dew point
16°C
Humidity
93%
QNH
1020 hPa
Weather condition
n/a

Description

International airport serving Asturias in northern spain.

Climatology

Temperate Marine climate/Oceanic climate (Köppen climate classification Cfb). Moderately cool summer and comparatively warm winter with a temperature range of only 14°C. Prevailing south-westerly winds from the Atlantic Ocean.

Runways

Designator Length Width Surface Rops
11/29 2200 45 ASP Yes/Yes

Airport map

Aerial View

SKYbrary Partners:

Safety knowledge contributed by: